Time;durP1;ratioP1;P1;durP2;ratioP2;P2;SDS_P1;SDS_P2;PMS_P1;PMS_P2;Temp;Humidity;BMP_temperature;BMP_pressure;BME280_temperature;BME280_humidity;BME280_pressure;Samples;Min_cycle;Max_cycle;Signal;HPM_P1;HPM_P2
2021/12/15 00:02:23;;;;;;;7.95;4.65;;;9.70;99.90;;;;;;4994081;28;20049;-82
2021/12/15 00:04:51;;;;;;;1.27;1.17;;;9.70;99.90;;;;;;4996228;28;20049;-82
2021/12/15 00:07:22;;;;;;;12.95;6.45;;;9.70;99.90;;;;;;4996673;28;20054;-81
2021/12/15 00:09:49;;;;;;;6.28;5.47;;;9.70;99.90;;;;;;4998636;28;20077;-80
2021/12/15 00:12:16;;;;;;;6.72;2.28;;;9.70;99.90;;;;;;4995794;28;20101;-81
2021/12/15 00:14:43;;;;;;;6.03;5.32;;;9.70;99.90;;;;;;4977537;28;20089;-81
2021/12/15 00:17:09;;;;;;;7.40;5.18;;;9.70;99.90;;;;;;4976929;28;20502;-81
2021/12/15 00:19:35;;;;;;;7.78;3.53;;;9.70;99.90;;;;;;4977662;28;20061;-82
2021/12/15 00:22:02;;;;;;;3.95;1.42;;;9.70;99.90;;;;;;4977646;28;20043;-81
2021/12/15 00:24:28;;;;;;;5.00;4.53;;;9.70;99.90;;;;;;4977210;28;20054;-81
2021/12/15 00:26:55;;;;;;;3.75;3.00;;;9.70;99.90;;;;;;4994795;28;20498;-81
2021/12/15 00:29:21;;;;;;;7.90;3.58;;;9.70;99.90;;;;;;4994773;28;20128;-81
2021/12/15 00:31:47;;;;;;;9.07;5.38;;;9.70;99.90;;;;;;4977357;28;20039;-81
2021/12/15 00:34:14;;;;;;;4.70;3.35;;;9.70;99.90;;;;;;4977600;28;20093;-81
2021/12/15 00:36:44;;;;;;;4.28;3.45;;;9.80;99.90;;;;;;4994868;28;20158;-81
2021/12/15 00:39:13;;;;;;;6.38;2.85;;;9.70;99.90;;;;;;4994877;28;20039;-81
2021/12/15 00:41:40;;;;;;;2.90;2.63;;;9.70;99.90;;;;;;4977185;28;20081;-81
2021/12/15 00:44:07;;;;;;;3.42;3.15;;;9.70;99.90;;;;;;4977213;28;20446;-81
2021/12/15 00:46:34;;;;;;;9.60;2.50;;;9.70;99.90;;;;;;4994295;28;20034;-81
2021/12/15 00:49:00;;;;;;;9.43;5.88;;;9.70;99.90;;;;;;4994654;28;20093;-80
2021/12/15 00:51:26;;;;;;;9.50;3.50;;;9.70;99.90;;;;;;4993190;28;20050;-80
2021/12/15 00:53:53;;;;;;;2.88;2.67;;;9.70;99.90;;;;;;4976751;28;20572;-81
2021/12/15 00:56:19;;;;;;;5.53;5.05;;;9.70;99.90;;;;;;4977009;28;20077;-82
2021/12/15 00:58:45;;;;;;;2.00;1.80;;;9.70;99.90;;;;;;4977094;28;20495;-82
2021/12/15 01:01:11;;;;;;;7.57;5.40;;;9.80;99.90;;;;;;4994683;28;20042;-81
2021/12/15 01:03:37;;;;;;;3.00;2.67;;;9.80;99.90;;;;;;4976894;28;20050;-81
2021/12/15 01:06:09;;;;;;;5.18;3.25;;;9.80;99.90;;;;;;4977306;28;20129;-81
2021/12/15 01:08:38;;;;;;;;;;;9.80;99.90;;;;;;4976948;28;20054;-82
2021/12/15 01:11:15;;;;;;;3.95;3.60;;;9.80;99.90;;;;;;4993089;28;19929;-80
2021/12/15 01:22:21;;;;;;;5.22;3.28;;;9.90;99.90;;;;;;4880388;29;20048;-80
2021/12/15 01:24:48;;;;;;;4.53;3.03;;;9.80;99.90;;;;;;4880012;29;20064;-80
2021/12/15 01:27:14;;;;;;;10.18;5.60;;;9.80;99.90;;;;;;4880168;29;20059;-81
2021/12/15 01:29:40;;;;;;;3.28;3.08;;;9.80;99.90;;;;;;4879937;29;20148;-81
2021/12/15 01:32:06;;;;;;;3.45;2.17;;;9.80;99.90;;;;;;4880388;29;20139;-81
2021/12/15 01:34:32;;;;;;;7.47;5.38;;;9.80;99.90;;;;;;4880051;29;20048;-81
2021/12/15 01:36:57;;;;;;;12.30;4.78;;;9.80;99.90;;;;;;4880144;29;20061;-81
2021/12/15 01:39:24;;;;;;;2.58;2.38;;;9.70;99.90;;;;;;4880011;29;20052;-81
2021/12/15 01:41:54;;;;;;;3.50;3.25;;;9.80;99.90;;;;;;4880371;29;20490;-81
2021/12/15 01:46:57;;;;;;;3.83;2.85;;;9.80;99.90;;;;;;4879915;29;20116;-81
2021/12/15 01:49:50;;;;;;;6.90;2.85;;;9.80;99.90;;;;;;4880054;29;20509;-81
2021/12/15 01:52:23;;;;;;;4.65;1.77;;;9.80;99.90;;;;;;4880170;29;20505;-81
2021/12/15 01:54:54;;;;;;;2.53;2.42;;;9.80;99.90;;;;;;4884827;28;20073;-81
2021/12/15 01:57:23;;;;;;;3.03;2.83;;;9.70;99.90;;;;;;4976488;28;20054;-82
2021/12/15 01:59:51;;;;;;;4.88;2.95;;;9.80;99.90;;;;;;4992293;28;20089;-81
2021/12/15 02:02:18;;;;;;;14.98;3.45;;;9.80;99.90;;;;;;4991951;28;20042;-81
2021/12/15 02:04:44;;;;;;;4.25;2.92;;;9.70;99.90;;;;;;4975577;28;20117;-80
2021/12/15 02:07:14;;;;;;;4.20;2.50;;;9.80;99.90;;;;;;4976086;28;20394;-80
2021/12/15 02:10:01;;;;;;;7.88;4.38;;;9.80;99.90;;;;;;4975506;28;20602;-80
2021/12/15 02:12:32;;;;;;;2.15;1.42;;;9.80;99.90;;;;;;4959468;28;20100;-81
2021/12/15 02:14:59;;;;;;;12.18;5.13;;;9.80;99.90;;;;;;4991941;28;20177;-80
2021/12/15 02:17:26;;;;;;;6.35;5.75;;;9.80;99.90;;;;;;4975593;28;20084;-80
2021/12/15 02:19:52;;;;;;;16.65;2.75;;;9.90;99.90;;;;;;4991973;28;20384;-80
2021/12/15 02:22:18;;;;;;;2.92;2.67;;;9.90;99.90;;;;;;4975624;28;20097;-81
2021/12/15 02:24:47;;;;;;;5.07;2.30;;;9.80;99.90;;;;;;4974913;28;20104;-81
2021/12/15 02:27:14;;;;;;;4.80;4.35;;;10.00;99.90;;;;;;4975421;28;20057;-82
2021/12/15 02:29:44;;;;;;;3.03;2.22;;;9.90;99.90;;;;;;4975246;28;20509;-81
2021/12/15 02:32:20;;;;;;;4.50;1.75;;;9.90;99.90;;;;;;4991526;28;20045;-81
2021/12/15 02:37:30;;;;;;;5.97;2.83;;;9.90;99.90;;;;;;4975194;28;20050;-81
2021/12/15 02:40:01;;;;;;;11.88;2.85;;;9.90;99.90;;;;;;4975391;28;20057;-81
2021/12/15 02:42:30;;;;;;;2.80;2.53;;;9.90;99.90;;;;;;4979192;28;20108;-81
2021/12/15 02:44:56;;;;;;;3.13;2.83;;;10.00;99.90;;;;;;4979288;28;20050;-80
2021/12/15 02:47:27;;;;;;;3.97;3.75;;;10.00;99.90;;;;;;4979398;28;20047;-81
2021/12/15 02:49:55;;;;;;;5.53;4.33;;;9.90;99.90;;;;;;4979299;28;20052;-81
2021/12/15 02:52:21;;;;;;;3.22;2.97;;;10.00;99.90;;;;;;4979454;28;20046;-81
2021/12/15 02:54:47;;;;;;;3.35;3.05;;;10.00;99.90;;;;;;4978566;28;20482;-81
2021/12/15 02:57:13;;;;;;;6.97;3.50;;;9.90;99.90;;;;;;4978712;28;20105;-79
2021/12/15 02:59:54;;;;;;;5.70;4.28;;;9.90;99.90;;;;;;4979016;28;20065;-81
2021/12/15 03:02:53;;;;;;;4.72;4.00;;;10.00;99.90;;;;;;4978967;28;20039;-80
2021/12/15 03:05:23;;;;;;;7.72;3.65;;;10.00;99.90;;;;;;4978864;28;20469;-81
2021/12/15 03:08:07;;;;;;;3.78;3.50;;;10.00;99.90;;;;;;4978854;28;20046;-80
2021/12/15 03:16:06;;;;;;;5.93;4.20;;;10.00;99.90;;;;;;4998433;28;20401;-81
2021/12/15 03:18:32;;;;;;;4.20;2.13;;;10.10;99.90;;;;;;4998215;28;20046;-81
2021/12/15 03:21:01;;;;;;;2.47;2.13;;;10.00;99.90;;;;;;4981793;28;20549;-81
2021/12/15 03:23:31;;;;;;;5.82;4.22;;;10.00;99.90;;;;;;5013984;28;20050;-81
2021/12/15 03:25:59;;;;;;;9.20;4.03;;;10.00;99.90;;;;;;4997803;28;20524;-80
2021/12/15 03:36:37;;;;;;;3.83;3.60;;;10.00;99.90;;;;;;5015220;28;20132;-81
2021/12/15 03:39:10;;;;;;;4.45;2.95;;;10.00;99.90;;;;;;4997989;28;20095;-82
2021/12/15 03:41:36;;;;;;;5.15;4.82;;;10.00;99.90;;;;;;5013856;28;20395;-81
2021/12/15 03:44:05;;;;;;;4.97;4.60;;;10.00;99.90;;;;;;4997239;28;20038;-81
2021/12/15 03:46:32;;;;;;;5.93;3.47;;;10.00;99.90;;;;;;5015176;28;20058;-81
2021/12/15 03:48:58;;;;;;;7.10;5.25;;;10.00;99.90;;;;;;5013925;28;20414;-82
2021/12/15 03:51:24;;;;;;;2.90;2.70;;;10.10;99.90;;;;;;4997943;28;20046;-81
2021/12/15 03:53:50;;;;;;;6.68;4.18;;;10.00;99.90;;;;;;5014620;28;20516;-81
2021/12/15 03:56:16;;;;;;;13.90;3.97;;;10.00;99.90;;;;;;5013789;28;20124;-80
2021/12/15 03:58:45;;;;;;;3.67;3.35;;;10.00;99.90;;;;;;5014813;28;20052;-81
2021/12/15 04:01:18;;;;;;;5.75;5.30;;;10.00;99.90;;;;;;4997209;28;20046;-81
2021/12/15 04:03:46;;;;;;;1.80;1.38;;;10.00;99.90;;;;;;4997258;28;20073;-81
2021/12/15 04:06:17;;;;;;;7.60;6.40;;;10.00;99.90;;;;;;4997330;28;20049;-81
2021/12/15 04:08:43;;;;;;;5.50;3.50;;;10.00;99.90;;;;;;5013252;28;20097;-81
2021/12/15 04:11:11;;;;;;;18.00;5.18;;;10.00;99.90;;;;;;5013334;28;20078;-81
2021/12/15 04:13:38;;;;;;;4.93;4.05;;;10.00;99.90;;;;;;5030042;28;20060;-80
2021/12/15 04:16:07;;;;;;;11.38;5.85;;;10.00;99.90;;;;;;4997196;28;20455;-81
2021/12/15 04:18:35;;;;;;;5.28;4.82;;;10.00;99.90;;;;;;5014465;28;20490;-80
2021/12/15 04:21:02;;;;;;;4.78;3.75;;;10.10;99.90;;;;;;4997022;28;20081;-82
2021/12/15 04:23:28;;;;;;;4.68;3.75;;;9.90;99.90;;;;;;5012930;28;20528;-81
2021/12/15 04:25:57;;;;;;;8.30;4.28;;;9.90;99.90;;;;;;4996907;28;20086;-81
2021/12/15 04:28:34;;;;;;;10.05;4.53;;;10.00;99.90;;;;;;5029823;28;20042;-81
2021/12/15 04:31:04;;;;;;;3.38;2.97;;;9.90;99.90;;;;;;5012988;28;20057;-81
2021/12/15 04:33:36;;;;;;;6.88;2.65;;;9.90;99.90;;;;;;4980399;28;20052;-81
2021/12/15 04:36:06;;;;;;;7.57;5.10;;;9.90;99.90;;;;;;4996677;28;20486;-81
2021/12/15 04:38:33;;;;;;;4.72;4.32;;;9.90;99.90;;;;;;5013163;28;20046;-80
2021/12/15 04:41:05;;;;;;;9.07;7.80;;;9.90;99.90;;;;;;4996506;28;20077;-81
2021/12/15 04:43:34;;;;;;;4.20;3.85;;;9.90;99.90;;;;;;5029207;28;20054;-81
2021/12/15 04:46:02;;;;;;;6.95;6.25;;;9.90;99.90;;;;;;4996761;28;20037;-81
2021/12/15 04:48:28;;;;;;;7.18;5.35;;;9.90;99.90;;;;;;4996304;28;20050;-81
2021/12/15 04:50:54;;;;;;;7.63;4.47;;;9.90;99.90;;;;;;5012969;28;20046;-82
2021/12/15 04:53:20;;;;;;;2.47;2.33;;;9.80;99.90;;;;;;5028698;28;20114;-79
2021/12/15 04:55:47;;;;;;;8.50;6.50;;;9.80;99.90;;;;;;5012459;28;20045;-81
2021/12/15 04:58:12;;;;;;;5.00;4.30;;;9.80;99.90;;;;;;4996142;28;20093;-81
2021/12/15 05:00:47;;;;;;;9.90;4.43;;;9.80;99.90;;;;;;5013879;28;20124;-82
2021/12/15 05:03:13;;;;;;;7.60;3.80;;;9.80;99.90;;;;;;5013306;28;20045;-82
2021/12/15 05:05:39;;;;;;;5.45;4.43;;;9.80;99.90;;;;;;4996043;28;20046;-81
2021/12/15 05:08:07;;;;;;;3.75;3.45;;;9.90;99.90;;;;;;5012594;28;20049;-81
2021/12/15 05:10:33;;;;;;;8.48;5.78;;;9.80;99.90;;;;;;4995892;28;20054;-81
2021/12/15 05:12:59;;;;;;;4.03;3.78;;;9.80;99.90;;;;;;5028733;28;20052;-81
2021/12/15 05:15:27;;;;;;;5.05;2.83;;;9.80;99.90;;;;;;4995796;28;20537;-80
2021/12/15 05:17:53;;;;;;;3.63;3.33;;;9.80;99.90;;;;;;5012536;28;20392;-81
2021/12/15 05:20:19;;;;;;;10.88;6.50;;;9.90;99.90;;;;;;4996121;28;20379;-81
2021/12/15 05:22:45;;;;;;;8.77;4.40;;;9.90;99.90;;;;;;4995665;28;20049;-81
2021/12/15 05:25:12;;;;;;;5.80;5.20;;;9.80;99.90;;;;;;4995535;28;20053;-81
2021/12/15 05:27:39;;;;;;;5.40;4.53;;;9.90;99.90;;;;;;5012268;28;20068;-81
2021/12/15 05:30:07;;;;;;;7.70;2.60;;;9.90;99.90;;;;;;5013442;28;20374;-81
2021/12/15 05:32:33;;;;;;;11.85;5.20;;;9.80;99.90;;;;;;5013391;28;20038;-81
2021/12/15 05:34:59;;;;;;;4.57;2.38;;;9.80;99.90;;;;;;5012134;28;20379;-81
2021/12/15 05:37:28;;;;;;;7.05;3.78;;;9.80;99.90;;;;;;4995612;28;20175;-81
2021/12/15 05:39:55;;;;;;;5.15;4.50;;;9.90;99.90;;;;;;5013284;28;20490;-81
2021/12/15 05:42:22;;;;;;;4.85;3.50;;;9.80;99.90;;;;;;4995367;28;20046;-81
2021/12/15 05:44:49;;;;;;;3.53;3.17;;;9.90;99.90;;;;;;4995119;28;20096;-81
2021/12/15 05:47:17;;;;;;;7.15;3.92;;;9.80;99.90;;;;;;5011564;28;20038;-81
2021/12/15 05:49:43;;;;;;;6.22;3.40;;;9.90;99.90;;;;;;5011632;28;20498;-81
2021/12/15 05:52:10;;;;;;;7.65;3.83;;;9.80;99.90;;;;;;4995267;28;20056;-81
2021/12/15 05:54:37;;;;;;;7.55;4.68;;;10.00;99.90;;;;;;5011038;28;20046;-81
2021/12/15 05:57:03;;;;;;;6.43;5.78;;;9.80;99.90;;;;;;5011674;28;20054;-81
2021/12/15 05:59:29;;;;;;;4.82;4.35;;;9.90;99.90;;;;;;5011416;28;20057;-80
2021/12/15 06:01:55;;;;;;;9.98;6.32;;;9.90;99.90;;;;;;4979319;28;20042;-82
2021/12/15 06:04:21;;;;;;;16.17;8.07;;;9.90;99.90;;;;;;4995058;28;20537;-81
2021/12/15 06:06:47;;;;;;;3.40;3.05;;;10.00;99.90;;;;;;4995109;28;20045;-80
2021/12/15 06:09:13;;;;;;;4.93;4.32;;;9.90;99.90;;;;;;4994915;28;20061;-80
2021/12/15 06:11:40;;;;;;;6.93;6.32;;;10.00;99.90;;;;;;5011248;28;20041;-81
2021/12/15 06:14:07;;;;;;;6.28;4.13;;;9.90;99.90;;;;;;4994796;28;20057;-81
2021/12/15 06:16:34;;;;;;;5.28;3.20;;;10.00;99.90;;;;;;4993923;28;20056;-81
2021/12/15 06:19:02;;;;;;;3.70;3.17;;;9.90;99.90;;;;;;4995181;28;20073;-80
2021/12/15 06:21:28;;;;;;;4.65;3.10;;;9.90;99.90;;;;;;4995147;28;20128;-81
2021/12/15 06:23:53;;;;;;;4.70;3.22;;;9.90;99.90;;;;;;5012535;28;20070;-81
2021/12/15 06:26:20;;;;;;;4.70;4.28;;;9.80;99.90;;;;;;4978605;28;20136;-80
2021/12/15 06:28:46;;;;;;;9.82;6.65;;;9.80;99.90;;;;;;4994448;28;20482;-81
2021/12/15 06:31:15;;;;;;;8.85;4.18;;;9.80;99.90;;;;;;5012499;28;20118;-81
2021/12/15 06:33:42;;;;;;;12.50;8.00;;;9.90;99.90;;;;;;4994711;28;20489;-81
2021/12/15 06:36:09;;;;;;;9.73;5.43;;;9.90;99.90;;;;;;5011308;28;20128;-81
2021/12/15 06:38:43;;;;;;;5.60;3.28;;;9.90;99.90;;;;;;4994993;28;20372;-83
2021/12/15 06:41:12;;;;;;;10.55;7.22;;;9.90;99.90;;;;;;4994474;28;20143;-81
2021/12/15 06:43:44;;;;;;;5.07;4.53;;;9.80;99.90;;;;;;4994811;28;20119;-81
2021/12/15 06:59:51;;;;;;;15.68;5.65;;;9.80;99.90;;;;;;4994354;28;20093;-80
2021/12/15 07:02:17;;;;;;;5.28;3.92;;;9.80;99.90;;;;;;5011811;28;20077;-81
2021/12/15 07:04:43;;;;;;;6.43;5.90;;;9.80;99.90;;;;;;4994151;28;20046;-80
2021/12/15 07:07:09;;;;;;;6.93;6.15;;;9.80;99.90;;;;;;4978092;28;20048;-80
2021/12/15 07:09:35;;;;;;;12.45;5.60;;;9.80;99.90;;;;;;5011682;28;20100;-81
2021/12/15 07:12:02;;;;;;;6.57;4.13;;;9.90;99.90;;;;;;4994280;28;20045;-81
2021/12/15 07:14:28;;;;;;;5.18;4.78;;;9.90;99.90;;;;;;4994660;28;20054;-80
2021/12/15 07:16:56;;;;;;;10.57;5.85;;;9.90;99.90;;;;;;4994288;28;20383;-82
2021/12/15 07:19:33;;;;;;;5.30;4.90;;;9.90;99.90;;;;;;5011786;28;20037;-81
2021/12/15 07:22:15;;;;;;;5.63;4.78;;;9.90;99.90;;;;;;4994707;28;20128;-81
2021/12/15 07:24:41;;;;;;;13.48;5.07;;;9.90;99.90;;;;;;5010529;28;20064;-83
2021/12/15 07:27:07;;;;;;;6.18;3.20;;;9.90;99.90;;;;;;5012080;28;20069;-83
2021/12/15 07:29:34;;;;;;;11.02;5.95;;;9.90;99.90;;;;;;4997926;28;20053;-82
2021/12/15 07:32:00;;;;;;;14.38;5.80;;;9.90;99.90;;;;;;5004595;28;20087;-82
2021/12/15 07:34:26;;;;;;;4.78;4.47;;;9.80;99.90;;;;;;5021183;28;20050;-80
2021/12/15 07:36:53;;;;;;;7.72;5.57;;;9.80;99.90;;;;;;4998479;28;20554;-80
2021/12/15 07:39:20;;;;;;;2.40;2.20;;;9.90;99.90;;;;;;5014430;28;20058;-79
2021/12/15 07:41:51;;;;;;;18.85;4.93;;;9.80;99.90;;;;;;4998357;28;20524;-82
2021/12/15 07:44:19;;;;;;;6.05;4.95;;;9.80;99.90;;;;;;5015461;28;20054;-82
2021/12/15 07:46:46;;;;;;;5.38;3.65;;;9.80;99.90;;;;;;4997587;28;20050;-83
2021/12/15 07:49:13;;;;;;;5.75;5.35;;;9.80;99.90;;;;;;4997357;28;20038;-82
2021/12/15 07:51:42;;;;;;;7.43;4.45;;;9.80;99.90;;;;;;5015442;28;20057;-81
2021/12/15 07:54:09;;;;;;;7.40;4.28;;;9.80;99.90;;;;;;4997358;28;20093;-82
2021/12/15 07:56:34;;;;;;;5.90;3.78;;;9.80;99.90;;;;;;5015098;28;20058;-84
2021/12/15 07:59:00;;;;;;;16.15;4.85;;;9.80;99.90;;;;;;4997296;28;20092;-82
2021/12/15 08:01:26;;;;;;;10.43;3.85;;;9.90;99.90;;;;;;4997303;28;20119;-79
2021/12/15 08:03:54;;;;;;;10.43;6.85;;;9.80;99.90;;;;;;4997092;28;20056;-84
2021/12/15 08:06:25;;;;;;;6.97;4.82;;;9.90;99.90;;;;;;4997675;28;20050;-83
2021/12/15 08:08:53;;;;;;;14.10;8.52;;;9.90;99.90;;;;;;5013756;28;20069;-79
2021/12/15 08:11:18;;;;;;;3.20;2.90;;;9.90;99.90;;;;;;4997431;28;20046;-83
2021/12/15 08:13:45;;;;;;;5.60;4.43;;;9.90;99.90;;;;;;4980809;28;20136;-84
2021/12/15 08:16:13;;;;;;;10.43;3.95;;;9.80;99.90;;;;;;4997416;28;20085;-82
2021/12/15 08:18:42;;;;;;;20.40;5.57;;;9.90;99.90;;;;;;4997252;28;20038;-82
2021/12/15 08:21:09;;;;;;;9.82;4.95;;;10.00;99.90;;;;;;4997279;28;20129;-85
2021/12/15 08:23:35;;;;;;;7.72;4.80;;;9.90;99.90;;;;;;4980589;28;20049;-81
2021/12/15 08:26:01;;;;;;;4.93;3.40;;;10.00;99.90;;;;;;5003760;28;20081;-81
2021/12/15 08:28:27;;;;;;;6.88;5.50;;;9.90;99.90;;;;;;5002250;28;20078;-82
2021/12/15 08:30:53;;;;;;;7.15;3.38;;;10.00;99.90;;;;;;5013693;28;20045;-81
2021/12/15 08:33:22;;;;;;;4.47;4.07;;;10.00;99.90;;;;;;5026799;28;20050;-81
2021/12/15 08:35:58;;;;;;;5.35;4.85;;;10.00;99.90;;;;;;5029740;28;20060;-81
2021/12/15 08:38:25;;;;;;;6.25;5.25;;;10.00;99.90;;;;;;5012100;28;20042;-81
2021/12/15 08:40:51;;;;;;;4.53;4.15;;;10.00;99.90;;;;;;5012856;28;20073;-80
2021/12/15 08:43:18;;;;;;;6.28;5.50;;;10.00;99.90;;;;;;5012878;28;20085;-81
2021/12/15 08:45:52;;;;;;;8.95;7.53;;;10.00;99.90;;;;;;5012913;28;20123;-81
2021/12/15 08:48:17;;;;;;;4.90;3.58;;;9.90;99.90;;;;;;4996354;28;20056;-81
2021/12/15 08:50:44;;;;;;;3.60;3.30;;;10.00;99.90;;;;;;5012533;28;20053;-82
2021/12/15 08:53:11;;;;;;;13.40;5.10;;;10.00;99.90;;;;;;5013506;28;20092;-82
2021/12/15 08:55:45;;;;;;;2.53;2.13;;;10.00;99.90;;;;;;4980971;28;20097;-82
2021/12/15 08:58:12;;;;;;;8.70;4.85;;;10.00;99.90;;;;;;4976739;28;20042;-82
2021/12/15 09:00:42;;;;;;;6.82;6.15;;;10.00;99.90;;;;;;4992689;28;20054;-82
2021/12/15 09:03:08;;;;;;;9.30;3.78;;;10.00;99.90;;;;;;4993077;28;20042;-82
2021/12/15 09:05:35;;;;;;;5.75;3.75;;;10.00;99.90;;;;;;4992888;28;20042;-82
2021/12/15 09:08:01;;;;;;;4.80;4.32;;;10.00;99.90;;;;;;4992685;28;20549;-82
2021/12/15 09:10:30;;;;;;;10.93;5.35;;;10.00;99.90;;;;;;4992529;28;20054;-82
2021/12/15 09:12:57;;;;;;;5.47;5.00;;;10.10;99.90;;;;;;4976474;28;20060;-82
2021/12/15 09:15:23;;;;;;;13.15;3.17;;;10.10;99.90;;;;;;4992855;28;20058;-82
2021/12/15 09:17:50;;;;;;;2.65;2.45;;;10.10;99.90;;;;;;4976731;28;20104;-82
2021/12/15 09:20:19;;;;;;;10.10;3.58;;;10.10;99.90;;;;;;4992608;28;20046;-82
2021/12/15 09:22:44;;;;;;;12.68;4.78;;;10.10;99.90;;;;;;4992856;28;20050;-82
2021/12/15 09:25:12;;;;;;;3.08;2.70;;;10.10;99.90;;;;;;4976518;28;20042;-84
2021/12/15 09:27:39;;;;;;;4.72;3.67;;;10.10;99.90;;;;;;4992496;28;20050;-81
2021/12/15 09:30:11;;;;;;;4.20;3.55;;;10.20;99.90;;;;;;4994044;28;20042;-89
2021/12/15 09:32:37;;;;;;;;;;;10.20;99.90;;;;;;4993610;28;20434;-89
2021/12/15 09:35:04;;;;;;;7.88;4.68;;;10.20;99.90;;;;;;4976513;28;19937;-85
2021/12/15 09:37:30;;;;;;;3.38;2.55;;;10.20;99.90;;;;;;4976917;28;20545;-85
2021/12/15 09:39:57;;;;;;;7.28;4.75;;;10.30;99.90;;;;;;4976543;28;20053;-85
2021/12/15 09:42:29;;;;;;;5.03;3.97;;;10.20;99.90;;;;;;4976407;28;20038;-84
2021/12/15 09:45:02;;;;;;;2.75;2.63;;;10.30;99.90;;;;;;4993917;28;20395;-86
2021/12/15 09:56:25;;;;;;;2.90;2.75;;;10.30;99.90;;;;;;4933608;29;20055;-86
2021/12/15 09:56:37;;;;;;;4.75;4.35;;;10.30;99.90;;;;;;4917788;29;20055;-87
2021/12/15 10:12:29;;;;;;;4.03;2.72;;;10.50;99.90;;;;;;4933651;29;20063;-86
2021/12/15 10:18:09;;;;;;;3.95;3.53;;;10.40;99.90;;;;;;4917529;29;20051;-85
2021/12/15 10:20:39;;;;;;;3.00;2.33;;;10.50;99.90;;;;;;4917413;28;20151;-86
2021/12/15 10:23:14;;;;;;;4.35;1.70;;;10.50;99.90;;;;;;4933347;29;20127;-85
2021/12/15 10:25:45;;;;;;;3.40;2.67;;;10.50;99.90;;;;;;4917173;29;20039;-85
2021/12/15 10:28:20;;;;;;;3.80;3.33;;;10.50;99.90;;;;;;4967950;28;20066;-86
2021/12/15 10:30:48;;;;;;;6.30;5.63;;;10.50;99.90;;;;;;4975696;28;20148;-87
2021/12/15 10:33:18;;;;;;;2.20;2.10;;;10.50;99.90;;;;;;4975886;28;20047;-86
2021/12/15 10:35:48;;;;;;;4.22;3.83;;;10.50;99.90;;;;;;4975924;28;20051;-86
2021/12/15 10:38:28;;;;;;;2.20;2.08;;;10.60;99.90;;;;;;4993167;28;20038;-86
2021/12/15 10:41:16;;;;;;;1.23;0.93;;;10.50;99.90;;;;;;4975735;28;20049;-87
2021/12/15 10:43:45;;;;;;;3.92;2.75;;;10.60;99.90;;;;;;4975879;28;20554;-86
2021/12/15 10:46:34;;;;;;;4.53;2.25;;;10.60;99.90;;;;;;4993087;28;20380;-85
2021/12/15 10:49:13;;;;;;;2.35;2.15;;;10.60;99.90;;;;;;4991808;28;20113;-86
2021/12/15 10:52:04;;;;;;;1.60;1.50;;;10.60;99.90;;;;;;4991934;28;20094;-81
2021/12/15 10:54:36;;;;;;;19.20;3.33;;;10.60;99.90;;;;;;4965855;28;20062;-85
2021/12/15 10:57:06;;;;;;;2.38;2.28;;;10.60;99.90;;;;;;4973660;28;20101;-86
2021/12/15 10:59:39;;;;;;;4.68;1.80;;;10.60;99.90;;;;;;4971951;28;20051;-81
2021/12/15 11:02:20;;;;;;;1.25;1.25;;;10.60;99.90;;;;;;4974136;28;20090;-86
2021/12/15 11:04:51;;;;;;;1.27;1.27;;;10.60;99.90;;;;;;4960803;28;20051;-86
2021/12/15 11:07:19;;;;;;;3.37;3.10;;;10.70;99.90;;;;;;4978969;28;20119;-87
2021/12/15 11:09:58;;;;;;;10.52;3.75;;;10.60;99.90;;;;;;4977555;28;20047;-84
2021/12/15 11:12:47;;;;;;;2.97;2.75;;;10.60;99.90;;;;;;4975667;28;20447;-83
2021/12/15 11:15:23;;;;;;;6.70;2.30;;;10.70;99.90;;;;;;4977384;28;20109;-85
2021/12/15 11:17:51;;;;;;;3.33;3.05;;;10.80;99.90;;;;;;4977121;28;20109;-86
2021/12/15 11:20:27;;;;;;;1.42;1.40;;;10.80;99.90;;;;;;4959892;28;20158;-85
2021/12/15 11:23:14;;;;;;;2.88;1.80;;;10.80;99.90;;;;;;4976679;28;20503;-86
2021/12/15 11:25:43;;;;;;;2.88;1.83;;;10.90;99.90;;;;;;4959638;28;20047;-85
2021/12/15 11:28:18;;;;;;;3.00;1.85;;;10.90;99.90;;;;;;4976928;28;20105;-86
2021/12/15 11:30:45;;;;;;;1.92;1.83;;;10.90;99.90;;;;;;4975454;28;20054;-85
2021/12/15 11:33:19;;;;;;;1.58;1.10;;;10.90;99.90;;;;;;4975338;28;20097;-83
2021/12/15 11:35:55;;;;;;;3.33;2.97;;;11.00;99.90;;;;;;4959196;28;20058;-86
2021/12/15 11:38:28;;;;;;;6.70;4.20;;;10.90;99.90;;;;;;4957859;28;20133;-84
2021/12/15 11:40:56;;;;;;;2.53;2.33;;;10.90;99.90;;;;;;4943499;28;20103;-84
2021/12/15 11:43:34;;;;;;;3.63;2.42;;;10.90;99.90;;;;;;4975339;28;20046;-81
2021/12/15 11:46:02;;;;;;;5.35;2.97;;;10.90;99.90;;;;;;4959023;28;20100;-84
2021/12/15 11:48:36;;;;;;;5.22;4.78;;;10.90;99.90;;;;;;4975109;28;20047;-84
2021/12/15 11:51:04;;;;;;;3.22;2.78;;;10.80;99.90;;;;;;4959181;28;20051;-85
2021/12/15 11:53:40;;;;;;;2.10;1.90;;;10.80;99.90;;;;;;4976808;28;20051;-85
2021/12/15 11:56:20;;;;;;;2.88;2.10;;;10.80;99.90;;;;;;4978181;28;20510;-85
2021/12/15 11:58:47;;;;;;;7.82;2.20;;;10.80;99.90;;;;;;4978255;28;20054;-85
2021/12/15 12:01:51;;;;;;;2.13;2.03;;;10.80;99.90;;;;;;4995253;28;20106;-84
2021/12/15 12:04:32;;;;;;;0.90;0.80;;;10.80;99.90;;;;;;4996075;28;20046;-82
2021/12/15 12:07:13;;;;;;;3.13;2.80;;;10.80;99.90;;;;;;4995061;28;20050;-85
2021/12/15 12:09:43;;;;;;;2.10;2.00;;;10.80;99.90;;;;;;4978231;28;20418;-86
2021/12/15 12:12:10;;;;;;;4.78;3.83;;;10.90;99.90;;;;;;4977815;28;20046;-86
2021/12/15 12:14:48;;;;;;;9.35;2.53;;;10.90;99.90;;;;;;4976783;28;20049;-84
2021/12/15 12:17:18;;;;;;;2.35;1.73;;;10.90;99.90;;;;;;4977974;28;20046;-84
2021/12/15 12:19:50;;;;;;;5.55;2.60;;;10.90;99.90;;;;;;4995830;28;20045;-83
2021/12/15 12:22:20;;;;;;;4.60;2.88;;;10.90;99.90;;;;;;4994194;28;20057;-85
2021/12/15 12:24:48;;;;;;;2.75;2.38;;;10.90;99.90;;;;;;4993749;28;20058;-84
2021/12/15 12:27:15;;;;;;;4.70;2.22;;;10.90;99.90;;;;;;4994127;28;20046;-82
2021/12/15 12:29:42;;;;;;;0.80;0.80;;;11.00;99.90;;;;;;4995146;28;20427;-85
2021/12/15 12:32:07;;;;;;;1.85;1.45;;;10.80;99.90;;;;;;4995326;28;20121;-85
2021/12/15 12:34:33;;;;;;;2.40;1.75;;;10.90;99.90;;;;;;4995062;28;20130;-86
2021/12/15 12:36:59;;;;;;;2.10;1.98;;;10.70;99.90;;;;;;4995211;28;20043;-85
2021/12/15 12:39:34;;;;;;;11.98;2.53;;;10.70;99.90;;;;;;4995174;28;20457;-84
2021/12/15 12:42:01;;;;;;;5.60;2.67;;;10.70;99.90;;;;;;4995147;28;20050;-84
2021/12/15 12:44:44;;;;;;;2.05;1.23;;;10.70;99.90;;;;;;4995214;28;20483;-85
2021/12/15 12:47:28;;;;;;;3.22;1.55;;;10.70;99.90;;;;;;4994931;28;20043;-84
2021/12/15 13:01:10;;;;;;;1.48;1.38;;;10.90;99.90;;;;;;4977346;28;20141;-84
2021/12/15 13:03:43;;;;;;;4.75;2.25;;;10.80;99.90;;;;;;4977145;28;20137;-82
2021/12/15 13:06:15;;;;;;;1.05;1.05;;;10.90;99.90;;;;;;4994541;28;20557;-85
2021/12/15 13:08:50;;;;;;;1.60;1.50;;;10.90;99.90;;;;;;4993475;28;20104;-86
2021/12/15 13:11:25;;;;;;;4.13;3.30;;;10.90;99.90;;;;;;4993684;28;20053;-88
2021/12/15 13:14:02;;;;;;;2.72;0.77;;;10.90;99.90;;;;;;4995100;28;20046;-89
2021/12/15 13:16:51;;;;;;;2.63;1.90;;;10.90;99.90;;;;;;4994626;28;20093;-87
2021/12/15 13:19:25;;;;;;;2.20;2.05;;;10.90;99.90;;;;;;4982764;28;20041;-80
2021/12/15 13:30:54;;;;;;;0.70;0.70;;;10.70;99.90;;;;;;4972225;28;20086;-86
2021/12/15 13:33:34;;;;;;;2.55;1.33;;;10.70;99.90;;;;;;4940169;28;20242;-85
2021/12/15 13:36:03;;;;;;;1.80;1.70;;;10.60;99.90;;;;;;4956181;28;20069;-85
2021/12/15 13:38:28;;;;;;;1.98;1.60;;;10.50;99.90;;;;;;4971998;28;20138;-85
2021/12/15 13:41:19;;;;;;;2.95;2.35;;;10.50;99.90;;;;;;4972062;28;20125;-84
2021/12/15 13:44:11;;;;;;;0.95;0.77;;;10.50;99.90;;;;;;4971694;28;20050;-83
2021/12/15 13:46:42;;;;;;;0.52;0.50;;;10.40;99.90;;;;;;4971962;28;20062;-81
2021/12/15 13:49:28;;;;;;;0.40;0.35;;;10.40;99.90;;;;;;4944329;29;20083;-80
2021/12/15 13:51:59;;;;;;;0.55;0.55;;;10.30;99.90;;;;;;4917577;29;20043;-84
2021/12/15 13:54:33;;;;;;;12.30;1.33;;;10.30;99.90;;;;;;4917318;29;20066;-84
2021/12/15 13:57:14;;;;;;;1.80;1.60;;;10.40;99.90;;;;;;4933717;29;20055;-88
2021/12/15 13:59:42;;;;;;;0.20;0.20;;;10.30;99.90;;;;;;4933960;29;20090;-82
2021/12/15 14:02:42;;;;;;;0.50;0.50;;;10.20;99.90;;;;;;4972028;28;20073;-86
2021/12/15 14:05:16;;;;;;;5.25;0.77;;;10.20;99.90;;;;;;4933555;29;20060;-83
2021/12/15 14:07:47;;;;;;;0.20;0.20;;;10.10;99.90;;;;;;4933118;29;20059;-82
2021/12/15 14:10:13;;;;;;;0.50;0.45;;;10.10;99.90;;;;;;4917453;29;20055;-85
2021/12/15 14:12:44;;;;;;;0.32;0.32;;;10.10;99.90;;;;;;4933014;29;20111;-79
2021/12/15 14:15:40;;;;;;;1.20;1.15;;;10.00;99.90;;;;;;4917383;29;20063;-84
2021/12/15 14:18:13;;;;;;;0.40;0.40;;;10.00;99.90;;;;;;4858087;29;20117;-82
2021/12/15 14:20:47;;;;;;;0.60;0.60;;;9.90;99.90;;;;;;4874416;29;20454;-84
2021/12/15 14:23:20;;;;;;;3.63;1.88;;;9.90;99.90;;;;;;4860950;29;20150;-83
2021/12/15 14:25:46;;;;;;;0.65;0.47;;;9.90;99.90;;;;;;4876242;29;20133;-85
2021/12/15 14:28:17;;;;;;;2.45;2.13;;;10.00;99.90;;;;;;4876451;29;20437;-85
2021/12/15 14:30:45;;;;;;;0.63;0.63;;;9.90;99.90;;;;;;4860766;29;20053;-88